Tropical Cyclones
[Index]
Main Index Home Page Stock Weather Photos Extreme Storms Discussion Storm News and Storm Chasing Reports Tropical Cyclones / Hurricanes / Typhoons Weather Data and Links Wild Fires / Bushfires Weather Observation Techniques Weather Picture Catalogue Tornado Pictures and Reports Stock Video Footage and DVDs for sale
Season 2017-2018 Tropical Cyclone JOYCE Track Map
Season 2017-2018 Summaries: [BoM-AU] [JTWC-AU] [JTWC-SIO] [JTWC-SPAC] [JTWC-SH]
<<- Previous TC | JTWC 2017-2018 Season | Next TC ->>

click for intensity scale information  Lat/long Grid: Show Hide

 Date Labels: Show Hide

Joint Typhoon Warning Centre Cyclone Data

Name: JOYCE

09 Jan 2018 06:00 UTC to 15 Jan 2018 06:00 UTC

    date/time    lat    long     hPa   cat  kts
2018-01-09 06   16.7   125.2    1007         20          
2018-01-09 12   17.3   124.4    1007         20          
2018-01-09 18   17.9   123.0    1004         25          
2018-01-09 21   17.3   122.4    1004         25          
2018-01-10 00   16.7   122.7    1002         30          
2018-01-10 06   16.2   122.5    1000         30          
2018-01-10 12   16.2   122.4     999         30          
2018-01-10 18   16.6   122.0     995         35          
2018-01-11 00   16.8   121.8     996         35          
2018-01-11 06   17.3   121.6     993    1    40          
2018-01-11 12   18.0   121.5     990    1    45          
2018-01-11 18   18.6   121.5     987    1    50          
2018-01-11 18   18.6   121.5     987    1    50          
2018-01-12 00   19.3   121.0     989    1    45          
2018-01-12 06   19.7   120.5     988    1    45          
2018-01-12 12   20.2   119.8     989    1    45          
2018-01-12 18   20.6   119.4     993    1    40          
2018-01-13 00   21.6   118.5     993    1    40          
2018-01-13 06   22.5   118.0     995         35          
2018-01-13 12   23.7   117.2     996         35          
2018-01-13 18   24.6   116.3    1000         30          
2018-01-14 00   25.6   115.5    1004         25          
2018-01-14 06   26.3   114.8    1004         25          
2018-01-14 12   27.0   113.7    1004         25          
2018-01-14 18   27.4   113.2    1004         25          
2018-01-15 00   28.4   113.4    1004         25          
2018-01-15 06   29.2   113.2    1007         20          
Winds are 1-min average.

Tropical cyclone tracks developed by Michael Bath using data from the Joint Typhoon Warning Centre Best Tracks and Google Maps.


[Australian Severe Weather index] [Copyright Notice] [Email Contacts] [Search This Site] [Privacy Policy]
Document: tropical_cyclone_joyce.htm Updated: 12 March 2020